Time;durP1;ratioP1;P1;durP2;ratioP2;P2;SDS_P1;SDS_P2;PMS_P1;PMS_P2;Temp;Humidity;BMP_temperature;BMP_pressure;BME280_temperature;BME280_humidity;BME280_pressure;Samples;Min_cycle;Max_cycle;Signal;HPM_P1;HPM_P2
2023/08/12 00:00:17;;;;;;;0.00;0.00;;;;;;;;;;1728363;28;20886;-79
2023/08/12 00:01:08;;;;;;;0.00;0.00;;;;;;;;;;1725526;28;20497;-79
2023/08/12 00:02:00;;;;;;;0.00;0.00;;;;;;;;;;1727209;28;20542;-79
2023/08/12 00:02:51;;;;;;;0.00;0.00;;;;;;;;;;1726354;28;20286;-79
2023/08/12 00:03:43;;;;;;;0.00;0.00;;;;;;;;;;1727088;28;20474;-79
2023/08/12 00:04:35;;;;;;;0.00;0.00;;;;;;;;;;1726798;28;20200;-79
2023/08/12 00:05:27;;;;;;;0.00;0.00;;;;;;;;;;1725026;28;20207;-79
2023/08/12 00:06:18;;;;;;;0.00;0.00;;;;;;;;;;1727098;28;20200;-79
2023/08/12 00:07:10;;;;;;;0.00;0.00;;;;;;;;;;1726768;28;20238;-79
2023/08/12 00:08:01;;;;;;;0.00;0.00;;;;;;;;;;1726803;28;20654;-79
2023/08/12 00:08:53;;;;;;;0.00;0.00;;;;;;;;;;1726912;28;20937;-79
2023/08/12 00:09:44;;;;;;;0.00;0.00;;;;;;;;;;1726638;28;20625;-79
2023/08/12 00:10:38;;;;;;;0.00;0.00;;;;;;;;;;1725685;28;21669;-79
2023/08/12 00:11:29;;;;;;;0.00;0.00;;;;;;;;;;1720923;28;20209;-79
2023/08/12 00:12:20;;;;;;;0.00;0.00;;;;;;;;;;1726284;28;20621;-79
2023/08/12 00:13:14;;;;;;;0.00;0.00;;;;;;;;;;1726617;28;20201;-79
2023/08/12 00:14:05;;;;;;;0.00;0.00;;;;;;;;;;1726108;28;20898;-79
2023/08/12 00:14:56;;;;;;;0.00;0.00;;;;;;;;;;1726721;28;20271;-79
2023/08/12 00:15:48;;;;;;;0.00;0.00;;;;;;;;;;1725963;28;20559;-79
2023/08/12 00:16:39;;;;;;;0.00;0.00;;;;;;;;;;1726419;28;20683;-79
2023/08/12 00:17:30;;;;;;;0.00;0.00;;;;;;;;;;1728479;28;20283;-79
2023/08/12 00:18:23;;;;;;;0.00;0.00;;;;;;;;;;1732280;28;20338;-79
2023/08/12 00:19:14;;;;;;;0.00;0.00;;;;;;;;;;1725996;28;20326;-79
2023/08/12 00:20:06;;;;;;;0.00;0.00;;;;;;;;;;1726922;28;20335;-78
2023/08/12 00:20:59;;;;;;;0.00;0.00;;;;;;;;;;1727286;28;20685;-78
2023/08/12 00:21:52;;;;;;;0.00;0.00;;;;;;;;;;1729058;28;20205;-78
2023/08/12 00:22:44;;;;;;;0.00;0.00;;;;;;;;;;1728135;28;20196;-78
2023/08/12 00:23:38;;;;;;;0.00;0.00;;;;;;;;;;1728721;28;20238;-78
2023/08/12 00:24:29;;;;;;;0.00;0.00;;;;;;;;;;1728306;28;20425;-78
2023/08/12 00:25:21;;;;;;;0.00;0.00;;;;;;;;;;1727211;28;20265;-79
2023/08/12 00:26:13;;;;;;;0.00;0.00;;;;;;;;;;1725693;28;20393;-79
2023/08/12 00:27:05;;;;;;;0.00;0.00;;;;;;;;;;1726972;28;20302;-78
2023/08/12 00:27:57;;;;;;;0.00;0.00;;;;;;;;;;1726300;28;20208;-79
2023/08/12 00:28:49;;;;;;;0.00;0.00;;;;;;;;;;1726825;28;20658;-77
2023/08/12 00:29:41;;;;;;;0.00;0.00;;;;;;;;;;1726392;28;20726;-78
2023/08/12 00:30:32;;;;;;;0.00;0.00;;;;;;;;;;1725263;28;20658;-76
2023/08/12 00:31:24;;;;;;;0.00;0.00;;;;;;;;;;1726532;28;20212;-77
2023/08/12 00:32:16;;;;;;;0.00;0.00;;;;;;;;;;1722634;28;20205;-78
2023/08/12 00:33:07;;;;;;;0.00;0.00;;;;;;;;;;1727477;28;20239;-79
2023/08/12 00:33:59;;;;;;;0.00;0.00;;;;;;;;;;1729850;28;20248;-79
2023/08/12 00:34:50;;;;;;;0.00;0.00;;;;;;;;;;1729472;28;20204;-80
2023/08/12 00:35:42;;;;;;;0.00;0.00;;;;;;;;;;1728124;28;20236;-78
2023/08/12 00:36:33;;;;;;;0.00;0.00;;;;;;;;;;1729913;28;20235;-79
2023/08/12 00:37:24;;;;;;;0.00;0.00;;;;;;;;;;1730232;28;20212;-78
2023/08/12 00:38:17;;;;;;;0.00;0.00;;;;;;;;;;1729895;28;20244;-78
2023/08/12 00:39:08;;;;;;;0.00;0.00;;;;;;;;;;1730233;28;20240;-78
2023/08/12 00:40:00;;;;;;;0.00;0.00;;;;;;;;;;1730161;28;20224;-79
2023/08/12 00:40:51;;;;;;;0.00;0.00;;;;;;;;;;1725574;28;20687;-79
2023/08/12 00:41:44;;;;;;;0.00;0.00;;;;;;;;;;1726172;28;20291;-79
2023/08/12 00:42:35;;;;;;;0.00;0.00;;;;;;;;;;1725819;28;20239;-79
2023/08/12 00:43:27;;;;;;;0.00;0.00;;;;;;;;;;1726547;28;20567;-79
2023/08/12 00:44:18;;;;;;;0.00;0.00;;;;;;;;;;1726636;28;20250;-79
2023/08/12 00:45:10;;;;;;;0.00;0.00;;;;;;;;;;1727261;28;20700;-79
2023/08/12 00:46:02;;;;;;;0.00;0.00;;;;;;;;;;1725226;28;20258;-78
2023/08/12 00:46:54;;;;;;;0.00;0.00;;;;;;;;;;1725768;28;20247;-79
2023/08/12 00:47:46;;;;;;;0.00;0.00;;;;;;;;;;1726476;28;20532;-79
2023/08/12 00:48:38;;;;;;;0.00;0.00;;;;;;;;;;1725845;28;20929;-79
2023/08/12 00:49:29;;;;;;;0.00;0.00;;;;;;;;;;1726398;28;20300;-79
2023/08/12 00:50:21;;;;;;;0.00;0.00;;;;;;;;;;1726139;28;20542;-79
2023/08/12 00:51:12;;;;;;;0.00;0.00;;;;;;;;;;1723973;28;20616;-79
2023/08/12 00:52:04;;;;;;;0.00;0.00;;;;;;;;;;1726057;28;20212;-79
2023/08/12 00:52:56;;;;;;;0.00;0.00;;;;;;;;;;1726080;28;20486;-79
2023/08/12 00:53:47;;;;;;;0.00;0.00;;;;;;;;;;1726767;28;20211;-79
2023/08/12 00:54:39;;;;;;;0.00;0.00;;;;;;;;;;1726405;28;20197;-79
2023/08/12 00:55:30;;;;;;;0.00;0.00;;;;;;;;;;1726220;28;20299;-78
2023/08/12 00:56:22;;;;;;;0.00;0.00;;;;;;;;;;1729055;28;20223;-78
2023/08/12 00:57:15;;;;;;;0.00;0.00;;;;;;;;;;1728913;28;20215;-78
2023/08/12 00:58:06;;;;;;;0.00;0.00;;;;;;;;;;1729352;28;20212;-78
2023/08/12 00:58:59;;;;;;;0.00;0.00;;;;;;;;;;1728367;28;20204;-78
2023/08/12 00:59:50;;;;;;;0.00;0.00;;;;;;;;;;1729093;28;20642;-78
2023/08/12 01:00:42;;;;;;;0.00;0.00;;;;;;;;;;1725062;28;20232;-78
2023/08/12 01:01:34;;;;;;;0.00;0.00;;;;;;;;;;1727965;28;20621;-78
2023/08/12 01:02:25;;;;;;;0.00;0.00;;;;;;;;;;1728889;28;20501;-78
2023/08/12 01:03:17;;;;;;;0.00;0.00;;;;;;;;;;1728844;28;20200;-78
2023/08/12 01:04:08;;;;;;;0.00;0.00;;;;;;;;;;1728156;28;20298;-78
2023/08/12 01:04:59;;;;;;;0.00;0.00;;;;;;;;;;1728407;28;20567;-78
2023/08/12 01:05:51;;;;;;;0.00;0.00;;;;;;;;;;1725005;28;20639;-79
2023/08/12 01:06:42;;;;;;;0.00;0.00;;;;;;;;;;1727843;28;20619;-79
2023/08/12 01:07:33;;;;;;;0.00;0.00;;;;;;;;;;1726813;28;20639;-79
2023/08/12 01:08:27;;;;;;;0.00;0.00;;;;;;;;;;1726508;28;20211;-79
2023/08/12 01:09:18;;;;;;;0.00;0.00;;;;;;;;;;1726528;28;20243;-79
2023/08/12 01:10:14;;;;;;;0.00;0.00;;;;;;;;;;1726294;28;20689;-79
2023/08/12 01:11:10;;;;;;;0.00;0.00;;;;;;;;;;1725209;28;20282;-79
2023/08/12 01:12:03;;;;;;;0.00;0.00;;;;;;;;;;1725510;28;20347;-78
2023/08/12 01:13:04;;;;;;;0.00;0.00;;;;;;;;;;1726084;28;20233;-79
2023/08/12 01:13:59;;;;;;;0.00;0.00;;;;;;;;;;1726180;28;20209;-79
2023/08/12 01:14:56;;;;;;;0.00;0.00;;;;;;;;;;1726319;28;20205;-79
2023/08/12 01:15:50;;;;;;;0.00;0.00;;;;;;;;;;1726774;28;20232;-78
2023/08/12 01:16:44;;;;;;;0.00;0.00;;;;;;;;;;1729772;28;20236;-78
2023/08/12 01:17:37;;;;;;;0.00;0.00;;;;;;;;;;1727796;28;20627;-78
2023/08/12 01:18:28;;;;;;;0.00;0.00;;;;;;;;;;1728313;28;20298;-78
2023/08/12 01:19:24;;;;;;;0.00;0.00;;;;;;;;;;1728676;28;20200;-78
2023/08/12 01:20:17;;;;;;;0.00;0.00;;;;;;;;;;1722786;28;20279;-78
2023/08/12 01:21:09;;;;;;;0.00;0.00;;;;;;;;;;1727518;28;20235;-78
2023/08/12 01:22:01;;;;;;;0.00;0.00;;;;;;;;;;1728761;28;20216;-78
2023/08/12 01:22:57;;;;;;;0.00;0.00;;;;;;;;;;1728584;28;20656;-78
2023/08/12 01:23:50;;;;;;;0.00;0.00;;;;;;;;;;1729260;28;20205;-78
2023/08/12 01:24:43;;;;;;;0.00;0.00;;;;;;;;;;1728771;28;20721;-78
2023/08/12 01:25:34;;;;;;;0.00;0.00;;;;;;;;;;1727449;28;20235;-78
2023/08/12 01:26:25;;;;;;;0.00;0.00;;;;;;;;;;1728783;28;20211;-78
2023/08/12 01:27:17;;;;;;;0.00;0.00;;;;;;;;;;1729596;28;21119;-78
2023/08/12 01:28:09;;;;;;;0.00;0.00;;;;;;;;;;1728881;28;20541;-78
2023/08/12 01:29:00;;;;;;;0.00;0.00;;;;;;;;;;1728452;28;20204;-78
2023/08/12 01:29:53;;;;;;;0.00;0.00;;;;;;;;;;1728695;28;20201;-78
2023/08/12 01:30:47;;;;;;;0.00;0.00;;;;;;;;;;1726131;28;20639;-79
2023/08/12 01:31:41;;;;;;;0.00;0.00;;;;;;;;;;1726136;28;20258;-79
2023/08/12 01:32:36;;;;;;;0.00;0.00;;;;;;;;;;1726915;28;20200;-79
2023/08/12 01:33:33;;;;;;;0.00;0.00;;;;;;;;;;1726273;28;20204;-79
2023/08/12 01:34:29;;;;;;;0.00;0.00;;;;;;;;;;1726456;28;20603;-79
2023/08/12 01:35:22;;;;;;;0.00;0.00;;;;;;;;;;1726145;28;20208;-81
2023/08/12 01:36:15;;;;;;;0.00;0.00;;;;;;;;;;1726162;28;20292;-81
2023/08/12 01:37:09;;;;;;;0.00;0.00;;;;;;;;;;1726765;28;20245;-81
2023/08/12 01:38:03;;;;;;;0.00;0.00;;;;;;;;;;1726213;28;20311;-81
2023/08/12 01:38:56;;;;;;;0.00;0.00;;;;;;;;;;1725876;28;20207;-79
2023/08/12 01:39:48;;;;;;;0.00;0.00;;;;;;;;;;1726148;28;20514;-79
2023/08/12 01:40:41;;;;;;;0.00;0.00;;;;;;;;;;1729213;28;20621;-79
2023/08/12 01:41:32;;;;;;;0.00;0.00;;;;;;;;;;1727590;28;20637;-79
2023/08/12 01:42:23;;;;;;;0.00;0.00;;;;;;;;;;1728042;28;20343;-79
2023/08/12 01:43:16;;;;;;;0.00;0.00;;;;;;;;;;1726935;28;20204;-79
2023/08/12 01:44:07;;;;;;;0.00;0.00;;;;;;;;;;1727886;28;20239;-79
2023/08/12 01:45:00;;;;;;;0.00;0.00;;;;;;;;;;1727982;28;20564;-79
2023/08/12 01:45:53;;;;;;;0.00;0.00;;;;;;;;;;1727065;28;20247;-79
2023/08/12 01:46:45;;;;;;;0.00;0.00;;;;;;;;;;1723175;28;20205;-80
2023/08/12 01:47:36;;;;;;;0.00;0.00;;;;;;;;;;1729573;28;20327;-80
2023/08/12 01:48:27;;;;;;;0.00;0.00;;;;;;;;;;1728636;28;20283;-80
2023/08/12 01:49:19;;;;;;;0.00;0.00;;;;;;;;;;1728340;28;20913;-80
2023/08/12 01:50:10;;;;;;;0.00;0.00;;;;;;;;;;1729083;28;20212;-79
2023/08/12 01:51:02;;;;;;;0.00;0.00;;;;;;;;;;1727132;28;20244;-79
2023/08/12 01:51:54;;;;;;;0.00;0.00;;;;;;;;;;1728935;28;20499;-79
2023/08/12 01:52:46;;;;;;;0.00;0.00;;;;;;;;;;1728514;28;20193;-79
2023/08/12 01:53:38;;;;;;;0.00;0.00;;;;;;;;;;1728691;28;20529;-79
2023/08/12 01:54:33;;;;;;;0.00;0.00;;;;;;;;;;1728744;28;20510;-79
2023/08/12 01:55:24;;;;;;;0.00;0.00;;;;;;;;;;1727379;28;20200;-80
2023/08/12 01:56:16;;;;;;;0.00;0.00;;;;;;;;;;1726541;28;20564;-80
2023/08/12 01:57:08;;;;;;;0.00;0.00;;;;;;;;;;1723379;28;20575;-80
2023/08/12 01:58:00;;;;;;;0.00;0.00;;;;;;;;;;1725066;28;20562;-80
2023/08/12 01:58:51;;;;;;;0.00;0.00;;;;;;;;;;1726790;28;20575;-79
2023/08/12 01:59:43;;;;;;;0.00;0.00;;;;;;;;;;1726180;28;20541;-79
2023/08/12 02:00:35;;;;;;;0.00;0.00;;;;;;;;;;1724685;28;20240;-79
2023/08/12 02:01:27;;;;;;;0.00;0.00;;;;;;;;;;1722226;28;20448;-79
2023/08/12 02:02:19;;;;;;;0.00;0.00;;;;;;;;;;1729059;28;20554;-79
2023/08/12 02:03:10;;;;;;;0.00;0.00;;;;;;;;;;1728989;28;20490;-79
2023/08/12 02:04:01;;;;;;;0.00;0.00;;;;;;;;;;1729455;28;20490;-79
2023/08/12 02:04:53;;;;;;;0.00;0.00;;;;;;;;;;1729304;28;20471;-79
2023/08/12 02:05:44;;;;;;;0.00;0.00;;;;;;;;;;1725134;28;20740;-80
2023/08/12 02:06:36;;;;;;;0.00;0.00;;;;;;;;;;1726500;28;20562;-80
2023/08/12 02:07:27;;;;;;;0.00;0.00;;;;;;;;;;1726855;28;20509;-80
2023/08/12 02:08:19;;;;;;;0.00;0.00;;;;;;;;;;1726096;28;20521;-80
2023/08/12 02:09:10;;;;;;;0.00;0.00;;;;;;;;;;1726971;28;20524;-80
2023/08/12 02:10:06;;;;;;;0.00;0.00;;;;;;;;;;1726024;28;20494;-80
2023/08/12 02:10:57;;;;;;;0.00;0.00;;;;;;;;;;1727906;28;20894;-79
2023/08/12 02:11:49;;;;;;;0.00;0.00;;;;;;;;;;1728651;28;20550;-79
2023/08/12 02:12:40;;;;;;;0.00;0.00;;;;;;;;;;1724192;28;20581;-79
2023/08/12 02:13:31;;;;;;;0.00;0.00;;;;;;;;;;1729792;28;20490;-79
2023/08/12 02:14:23;;;;;;;0.00;0.00;;;;;;;;;;1729949;28;20475;-79
2023/08/12 02:15:14;;;;;;;0.00;0.00;;;;;;;;;;1728913;28;20486;-79
2023/08/12 02:16:06;;;;;;;0.00;0.00;;;;;;;;;;1726274;28;20462;-79
2023/08/12 02:16:58;;;;;;;0.00;0.00;;;;;;;;;;1727153;28;20474;-79
2023/08/12 02:17:49;;;;;;;0.00;0.00;;;;;;;;;;1726550;28;20474;-79
2023/08/12 02:18:41;;;;;;;0.00;0.00;;;;;;;;;;1726493;28;20590;-79
2023/08/12 02:19:32;;;;;;;0.00;0.00;;;;;;;;;;1726445;28;20463;-78
2023/08/12 02:20:23;;;;;;;0.00;0.00;;;;;;;;;;1726906;28;20468;-78
2023/08/12 02:21:15;;;;;;;0.00;0.00;;;;;;;;;;1729064;28;20474;-79
2023/08/12 02:22:07;;;;;;;0.00;0.00;;;;;;;;;;1729958;28;20208;-79
2023/08/12 02:22:59;;;;;;;0.00;0.00;;;;;;;;;;1728527;28;20208;-79
2023/08/12 02:23:50;;;;;;;0.00;0.00;;;;;;;;;;1730320;28;20372;-79
2023/08/12 02:24:41;;;;;;;0.00;0.00;;;;;;;;;;1728741;28;20495;-79
2023/08/12 02:25:35;;;;;;;0.00;0.00;;;;;;;;;;1729095;28;20499;-79
2023/08/12 02:26:26;;;;;;;0.00;0.00;;;;;;;;;;1726448;28;20798;-79
2023/08/12 02:27:17;;;;;;;0.00;0.00;;;;;;;;;;1726865;28;20869;-79
2023/08/12 02:28:09;;;;;;;0.00;0.00;;;;;;;;;;1724999;28;20794;-80
2023/08/12 02:29:00;;;;;;;0.00;0.00;;;;;;;;;;1729867;28;20298;-80
2023/08/12 02:29:52;;;;;;;0.00;0.00;;;;;;;;;;1726382;28;20471;-79
2023/08/12 02:30:44;;;;;;;0.00;0.00;;;;;;;;;;1729614;28;20489;-79
2023/08/12 02:31:35;;;;;;;0.00;0.00;;;;;;;;;;1729028;28;20478;-79
2023/08/12 02:32:27;;;;;;;0.00;0.00;;;;;;;;;;1729374;28;20207;-79
2023/08/12 02:33:18;;;;;;;0.00;0.00;;;;;;;;;;1729402;28;20681;-81
2023/08/12 02:34:09;;;;;;;0.00;0.00;;;;;;;;;;1729902;28;20463;-80
2023/08/12 02:35:04;;;;;;;0.00;0.00;;;;;;;;;;1729111;28;20207;-80
2023/08/12 02:35:55;;;;;;;0.00;0.00;;;;;;;;;;1725262;28;20524;-80
2023/08/12 02:36:47;;;;;;;0.00;0.00;;;;;;;;;;1726344;28;20769;-80
2023/08/12 02:37:38;;;;;;;0.00;0.00;;;;;;;;;;1726410;28;20474;-80
2023/08/12 02:38:29;;;;;;;0.00;0.00;;;;;;;;;;1727454;28;20200;-80
2023/08/12 02:39:21;;;;;;;0.00;0.00;;;;;;;;;;1725960;28;20235;-80
2023/08/12 02:40:13;;;;;;;0.00;0.00;;;;;;;;;;1728237;28;20550;-80
2023/08/12 02:41:05;;;;;;;0.00;0.00;;;;;;;;;;1727762;28;20486;-80
2023/08/12 02:41:57;;;;;;;0.00;0.00;;;;;;;;;;1729846;28;20379;-79
2023/08/12 02:42:48;;;;;;;0.00;0.00;;;;;;;;;;1729811;28;21070;-78
2023/08/12 02:43:39;;;;;;;0.00;0.00;;;;;;;;;;1728252;28;20291;-78
2023/08/12 02:44:31;;;;;;;0.00;0.00;;;;;;;;;;1729764;28;20231;-78
2023/08/12 02:45:22;;;;;;;0.00;0.00;;;;;;;;;;1725752;28;20503;-78
2023/08/12 02:46:15;;;;;;;0.00;0.00;;;;;;;;;;1724403;28;20470;-78
2023/08/12 02:47:06;;;;;;;0.00;0.00;;;;;;;;;;1726549;28;20454;-79
2023/08/12 02:47:58;;;;;;;0.00;0.00;;;;;;;;;;1727865;28;20525;-79
2023/08/12 02:48:49;;;;;;;0.00;0.00;;;;;;;;;;1730778;28;20884;-79
2023/08/12 02:49:41;;;;;;;0.00;0.00;;;;;;;;;;1728268;28;20494;-79
2023/08/12 02:50:32;;;;;;;0.00;0.00;;;;;;;;;;1726347;28;20513;-79
2023/08/12 02:51:24;;;;;;;0.00;0.00;;;;;;;;;;1726420;28;20917;-79
2023/08/12 02:52:15;;;;;;;0.00;0.00;;;;;;;;;;1726315;28;20510;-79
2023/08/12 02:53:08;;;;;;;0.00;0.00;;;;;;;;;;1725458;28;20538;-79
2023/08/12 02:53:59;;;;;;;0.00;0.00;;;;;;;;;;1724913;28;20518;-79
2023/08/12 02:54:51;;;;;;;0.00;0.00;;;;;;;;;;1725633;28;20462;-79
2023/08/12 02:55:42;;;;;;;0.00;0.00;;;;;;;;;;1730416;28;20971;-78
2023/08/12 02:56:34;;;;;;;0.00;0.00;;;;;;;;;;1728792;28;21004;-78
2023/08/12 02:57:27;;;;;;;0.00;0.00;;;;;;;;;;1732633;28;20794;-78
2023/08/12 02:58:18;;;;;;;0.00;0.00;;;;;;;;;;1728633;28;20502;-79
2023/08/12 02:59:10;;;;;;;0.00;0.00;;;;;;;;;;1729365;28;20470;-78
2023/08/12 03:00:05;;;;;;;0.00;0.00;;;;;;;;;;1726939;28;20814;-78
2023/08/12 03:00:57;;;;;;;0.00;0.00;;;;;;;;;;1725696;28;20480;-80
2023/08/12 03:01:48;;;;;;;0.00;0.00;;;;;;;;;;1728845;28;20676;-79
2023/08/12 03:02:42;;;;;;;0.00;0.00;;;;;;;;;;1732071;28;20554;-78
2023/08/12 03:03:34;;;;;;;0.00;0.00;;;;;;;;;;1728336;28;20884;-79
2023/08/12 03:04:25;;;;;;;0.00;0.00;;;;;;;;;;1729635;28;20467;-79
2023/08/12 03:05:17;;;;;;;0.00;0.00;;;;;;;;;;1727919;28;20602;-79
2023/08/12 03:06:09;;;;;;;0.00;0.00;;;;;;;;;;1726443;28;20220;-79
2023/08/12 03:07:00;;;;;;;0.00;0.00;;;;;;;;;;1728423;28;20474;-80
2023/08/12 03:07:51;;;;;;;0.00;0.00;;;;;;;;;;1727523;28;20862;-81
2023/08/12 03:08:43;;;;;;;0.00;0.00;;;;;;;;;;1728955;28;20466;-80
2023/08/12 03:09:35;;;;;;;0.00;0.00;;;;;;;;;;1728028;28;20497;-79
2023/08/12 03:10:27;;;;;;;0.00;0.00;;;;;;;;;;1727297;28;20799;-79
2023/08/12 03:11:19;;;;;;;0.00;0.00;;;;;;;;;;1727010;28;20542;-79
2023/08/12 03:12:12;;;;;;;0.00;0.00;;;;;;;;;;1729759;28;20471;-78
2023/08/12 03:13:03;;;;;;;0.00;0.00;;;;;;;;;;1729116;28;20485;-80
2023/08/12 03:13:54;;;;;;;0.00;0.00;;;;;;;;;;1726934;28;20525;-79
2023/08/12 03:14:46;;;;;;;0.00;0.00;;;;;;;;;;1726781;28;20533;-79
2023/08/12 03:15:39;;;;;;;0.00;0.00;;;;;;;;;;1727142;28;20559;-79
2023/08/12 03:16:30;;;;;;;0.00;0.00;;;;;;;;;;1728505;28;20565;-79
2023/08/12 03:17:22;;;;;;;0.00;0.00;;;;;;;;;;1728958;28;20467;-79
2023/08/12 03:18:13;;;;;;;0.00;0.00;;;;;;;;;;1729108;28;20485;-79
2023/08/12 03:19:05;;;;;;;0.00;0.00;;;;;;;;;;1729313;28;20951;-79
2023/08/12 03:19:59;;;;;;;0.00;0.00;;;;;;;;;;1729690;28;20483;-79
2023/08/12 03:20:50;;;;;;;0.00;0.00;;;;;;;;;;1728402;28;20983;-79
2023/08/12 03:21:42;;;;;;;0.00;0.00;;;;;;;;;;1729041;28;20554;-79
2023/08/12 03:22:33;;;;;;;0.00;0.00;;;;;;;;;;1730171;28;20519;-79
2023/08/12 03:23:25;;;;;;;0.00;0.00;;;;;;;;;;1729673;28;20490;-79
2023/08/12 03:24:16;;;;;;;0.00;0.00;;;;;;;;;;1730388;28;20231;-79
2023/08/12 03:25:07;;;;;;;0.00;0.00;;;;;;;;;;1730165;28;20537;-79
2023/08/12 03:25:59;;;;;;;0.00;0.00;;;;;;;;;;1725569;28;20545;-79
2023/08/12 03:26:51;;;;;;;0.00;0.00;;;;;;;;;;1727635;28;20467;-79
2023/08/12 03:27:44;;;;;;;0.00;0.00;;;;;;;;;;1727167;28;20478;-79
2023/08/12 03:28:35;;;;;;;0.00;0.00;;;;;;;;;;1726631;28;20586;-79
2023/08/12 03:29:27;;;;;;;0.00;0.00;;;;;;;;;;1727253;28;20466;-80
2023/08/12 03:30:19;;;;;;;0.00;0.00;;;;;;;;;;1729257;28;20498;-80
2023/08/12 03:31:11;;;;;;;0.00;0.00;;;;;;;;;;1730428;28;20888;-80
2023/08/12 03:32:02;;;;;;;0.00;0.00;;;;;;;;;;1730771;28;20998;-79
2023/08/12 03:32:53;;;;;;;0.00;0.00;;;;;;;;;;1729879;28;20455;-79
2023/08/12 03:33:45;;;;;;;0.00;0.00;;;;;;;;;;1730755;28;20485;-79
2023/08/12 03:34:36;;;;;;;0.00;0.00;;;;;;;;;;1729768;28;20600;-79
2023/08/12 03:35:28;;;;;;;0.00;0.00;;;;;;;;;;1728481;28;20608;-79
2023/08/12 03:36:19;;;;;;;0.00;0.00;;;;;;;;;;1729941;28;20465;-79
2023/08/12 03:37:11;;;;;;;0.00;0.00;;;;;;;;;;1730251;28;20818;-79
2023/08/12 03:38:02;;;;;;;0.00;0.00;;;;;;;;;;1729611;28;20913;-79
2023/08/12 03:38:53;;;;;;;0.00;0.00;;;;;;;;;;1729982;28;20831;-79
2023/08/12 03:39:45;;;;;;;0.00;0.00;;;;;;;;;;1729987;28;20470;-79
2023/08/12 03:40:38;;;;;;;0.00;0.00;;;;;;;;;;1728712;28;20534;-78
2023/08/12 03:41:30;;;;;;;0.00;0.00;;;;;;;;;;1729905;28;20577;-79
2023/08/12 03:42:21;;;;;;;0.00;0.00;;;;;;;;;;1730673;28;20462;-79
2023/08/12 03:43:14;;;;;;;0.00;0.00;;;;;;;;;;1729638;28;20469;-79
2023/08/12 03:44:06;;;;;;;0.00;0.00;;;;;;;;;;1729710;28;20894;-79
2023/08/12 03:44:57;;;;;;;0.00;0.00;;;;;;;;;;1729943;28;20498;-79
2023/08/12 03:45:48;;;;;;;0.00;0.00;;;;;;;;;;1725522;28;20553;-79
2023/08/12 03:46:40;;;;;;;0.00;0.00;;;;;;;;;;1720753;28;20936;-80
2023/08/12 03:47:31;;;;;;;0.00;0.00;;;;;;;;;;1726799;28;20495;-79
2023/08/12 03:48:23;;;;;;;0.00;0.00;;;;;;;;;;1726609;28;20549;-79
2023/08/12 03:49:15;;;;;;;0.00;0.00;;;;;;;;;;1727677;28;20463;-79
2023/08/12 03:50:07;;;;;;;0.00;0.00;;;;;;;;;;1727223;28;20261;-80
2023/08/12 03:50:59;;;;;;;0.00;0.00;;;;;;;;;;1731874;28;20506;-79
2023/08/12 03:51:50;;;;;;;0.00;0.00;;;;;;;;;;1734147;28;20211;-79
2023/08/12 03:52:41;;;;;;;0.00;0.00;;;;;;;;;;1725814;28;20482;-79
2023/08/12 03:53:33;;;;;;;0.00;0.00;;;;;;;;;;1727922;28;20988;-77
2023/08/12 03:54:24;;;;;;;0.00;0.00;;;;;;;;;;1726790;28;20236;-77
2023/08/12 03:55:15;;;;;;;0.00;0.00;;;;;;;;;;1728655;28;20559;-77
2023/08/12 03:56:07;;;;;;;0.00;0.00;;;;;;;;;;1726921;28;20478;-78
2023/08/12 03:56:58;;;;;;;0.00;0.00;;;;;;;;;;1729257;28;20533;-78
2023/08/12 03:57:49;;;;;;;0.00;0.00;;;;;;;;;;1727755;28;20470;-78
2023/08/12 03:58:42;;;;;;;0.00;0.00;;;;;;;;;;1729398;28;20793;-79
2023/08/12 03:59:33;;;;;;;0.00;0.00;;;;;;;;;;1730804;28;21036;-79
2023/08/12 04:00:25;;;;;;;0.00;0.00;;;;;;;;;;1731074;28;20203;-79
2023/08/12 04:01:16;;;;;;;0.00;0.00;;;;;;;;;;1731638;28;20470;-79
2023/08/12 04:02:08;;;;;;;0.00;0.00;;;;;;;;;;1733419;28;20466;-79
2023/08/12 04:02:59;;;;;;;0.00;0.00;;;;;;;;;;1731406;28;20555;-79
2023/08/12 04:03:51;;;;;;;0.00;0.00;;;;;;;;;;1731554;28;20478;-79
2023/08/12 04:04:43;;;;;;;0.00;0.00;;;;;;;;;;1730094;28;20555;-79
2023/08/12 04:05:34;;;;;;;0.00;0.00;;;;;;;;;;1729109;28;20471;-79
2023/08/12 04:06:26;;;;;;;0.00;0.00;;;;;;;;;;1728890;28;20459;-79
2023/08/12 04:07:17;;;;;;;0.00;0.00;;;;;;;;;;1729403;28;20518;-78
2023/08/12 04:08:08;;;;;;;0.00;0.00;;;;;;;;;;1729153;28;20509;-78
2023/08/12 04:09:00;;;;;;;0.00;0.00;;;;;;;;;;1729412;28;20254;-78
2023/08/12 04:09:51;;;;;;;0.00;0.00;;;;;;;;;;1728884;28;20554;-78
2023/08/12 04:10:44;;;;;;;0.00;0.00;;;;;;;;;;1728407;28;20475;-78
2023/08/12 04:11:36;;;;;;;0.00;0.00;;;;;;;;;;1729494;28;20467;-78
2023/08/12 04:12:28;;;;;;;0.00;0.00;;;;;;;;;;1729576;28;20232;-78
2023/08/12 04:13:19;;;;;;;0.00;0.00;;;;;;;;;;1727488;28;20491;-78
2023/08/12 04:14:12;;;;;;;0.00;0.00;;;;;;;;;;1729314;28;20519;-78
2023/08/12 04:15:04;;;;;;;0.00;0.00;;;;;;;;;;1728615;28;20204;-78
2023/08/12 04:15:56;;;;;;;0.00;0.00;;;;;;;;;;1725783;28;20272;-79
2023/08/12 04:16:47;;;;;;;0.00;0.00;;;;;;;;;;1726988;28;20562;-79
2023/08/12 04:17:40;;;;;;;0.00;0.00;;;;;;;;;;1730000;28;20299;-79
2023/08/12 04:18:32;;;;;;;0.00;0.00;;;;;;;;;;1723010;28;20707;-79
2023/08/12 04:19:23;;;;;;;0.00;0.00;;;;;;;;;;1726711;28;20471;-79
2023/08/12 04:20:14;;;;;;;0.00;0.00;;;;;;;;;;1727869;28;20506;-79
2023/08/12 04:21:06;;;;;;;0.00;0.00;;;;;;;;;;1725554;28;21006;-79
2023/08/12 04:21:58;;;;;;;0.00;0.00;;;;;;;;;;1727982;28;20821;-78
2023/08/12 04:22:49;;;;;;;0.00;0.00;;;;;;;;;;1727263;28;20550;-79
2023/08/12 04:23:41;;;;;;;0.00;0.00;;;;;;;;;;1727366;28;20577;-78
2023/08/12 04:24:32;;;;;;;0.00;0.00;;;;;;;;;;1726845;28;20584;-78
2023/08/12 04:25:23;;;;;;;0.00;0.00;;;;;;;;;;1725965;28;21075;-78
2023/08/12 04:26:15;;;;;;;0.00;0.00;;;;;;;;;;1726620;28;20494;-78
2023/08/12 04:27:06;;;;;;;0.00;0.00;;;;;;;;;;1727416;28;20573;-78
2023/08/12 04:27:57;;;;;;;0.00;0.00;;;;;;;;;;1726378;28;20473;-79
2023/08/12 04:28:49;;;;;;;0.00;0.00;;;;;;;;;;1727454;28;20454;-79
2023/08/12 04:29:42;;;;;;;0.00;0.00;;;;;;;;;;1726316;28;20486;-78
2023/08/12 04:30:33;;;;;;;0.00;0.00;;;;;;;;;;1726819;28;20530;-78
2023/08/12 04:31:25;;;;;;;0.00;0.00;;;;;;;;;;1726450;28;20963;-79
2023/08/12 04:32:16;;;;;;;0.00;0.00;;;;;;;;;;1730260;28;20549;-79
2023/08/12 04:33:07;;;;;;;0.00;0.00;;;;;;;;;;1723709;28;20812;-79
2023/08/12 04:33:59;;;;;;;0.00;0.00;;;;;;;;;;1727734;28;20496;-79
2023/08/12 04:34:50;;;;;;;0.00;0.00;;;;;;;;;;1726971;28;20204;-79
2023/08/12 04:35:42;;;;;;;0.00;0.00;;;;;;;;;;1728880;28;20484;-79
2023/08/12 04:36:33;;;;;;;0.00;0.00;;;;;;;;;;1726913;28;20909;-79
2023/08/12 04:37:25;;;;;;;0.00;0.00;;;;;;;;;;1727105;28;20588;-79
2023/08/12 04:38:18;;;;;;;0.00;0.00;;;;;;;;;;1726261;28;20535;-79
2023/08/12 04:39:10;;;;;;;0.00;0.00;;;;;;;;;;1727353;28;20459;-79
2023/08/12 04:40:05;;;;;;;0.00;0.00;;;;;;;;;;1726179;28;20471;-79
2023/08/12 04:40:56;;;;;;;0.00;0.00;;;;;;;;;;1725842;28;20867;-81
2023/08/12 04:41:48;;;;;;;0.00;0.00;;;;;;;;;;1726621;28;20510;-80
2023/08/12 04:42:39;;;;;;;0.00;0.00;;;;;;;;;;1726948;28;20494;-80
2023/08/12 04:43:31;;;;;;;0.00;0.00;;;;;;;;;;1727228;28;20491;-81
2023/08/12 04:44:22;;;;;;;0.00;0.00;;;;;;;;;;1725365;28;20619;-80
2023/08/12 04:45:15;;;;;;;0.00;0.00;;;;;;;;;;1727331;28;20283;-81
2023/08/12 04:46:07;;;;;;;0.00;0.00;;;;;;;;;;1724116;28;20802;-80
2023/08/12 04:46:58;;;;;;;0.00;0.00;;;;;;;;;;1723323;28;20686;-80
2023/08/12 04:47:50;;;;;;;0.00;0.00;;;;;;;;;;1726618;28;20206;-80
2023/08/12 04:48:41;;;;;;;0.00;0.00;;;;;;;;;;1727214;28;20204;-80
2023/08/12 04:49:32;;;;;;;0.00;0.00;;;;;;;;;;1727013;28;20203;-81
2023/08/12 04:50:24;;;;;;;0.00;0.00;;;;;;;;;;1727342;28;20450;-80
2023/08/12 04:51:15;;;;;;;0.00;0.00;;;;;;;;;;1729114;28;20491;-80
2023/08/12 04:52:08;;;;;;;0.00;0.00;;;;;;;;;;1731467;28;20841;-80
2023/08/12 04:52:59;;;;;;;0.00;0.00;;;;;;;;;;1735416;28;20473;-80
2023/08/12 04:53:51;;;;;;;0.00;0.00;;;;;;;;;;1735875;28;20203;-80
2023/08/12 04:54:42;;;;;;;0.00;0.00;;;;;;;;;;1735877;28;20695;-80
2023/08/12 04:55:33;;;;;;;0.00;0.00;;;;;;;;;;1734397;28;20235;-80
2023/08/12 04:56:28;;;;;;;0.00;0.00;;;;;;;;;;1735942;28;20290;-80
2023/08/12 04:57:19;;;;;;;0.00;0.00;;;;;;;;;;1739150;28;20660;-80
2023/08/12 04:58:10;;;;;;;0.00;0.00;;;;;;;;;;1738855;28;20196;-80
2023/08/12 04:59:03;;;;;;;0.00;0.00;;;;;;;;;;1736222;28;20196;-80
2023/08/12 04:59:55;;;;;;;0.00;0.00;;;;;;;;;;1736174;28;20331;-80
2023/08/12 05:00:47;;;;;;;0.00;0.00;;;;;;;;;;1738752;28;20473;-80
2023/08/12 05:01:39;;;;;;;0.00;0.00;;;;;;;;;;1736480;28;20204;-80
2023/08/12 05:02:30;;;;;;;0.00;0.00;;;;;;;;;;1738866;28;20239;-80
2023/08/12 05:03:21;;;;;;;0.00;0.00;;;;;;;;;;1735696;28;20553;-80
2023/08/12 05:04:13;;;;;;;0.00;0.00;;;;;;;;;;1734799;28;20203;-80
2023/08/12 05:05:05;;;;;;;0.00;0.00;;;;;;;;;;1736052;28;20462;-80
2023/08/12 05:05:57;;;;;;;0.00;0.00;;;;;;;;;;1734678;28;20496;-80
2023/08/12 05:06:48;;;;;;;0.00;0.00;;;;;;;;;;1735531;28;20221;-80
2023/08/12 05:07:39;;;;;;;0.00;0.00;;;;;;;;;;1736259;28;20480;-80
2023/08/12 05:08:31;;;;;;;0.00;0.00;;;;;;;;;;1736216;28;20199;-80
2023/08/12 05:09:22;;;;;;;0.00;0.00;;;;;;;;;;1734817;28;20486;-80
2023/08/12 05:10:14;;;;;;;0.00;0.00;;;;;;;;;;1735935;28;20466;-80
2023/08/12 05:11:05;;;;;;;0.00;0.00;;;;;;;;;;1736328;28;20970;-80